セントジョンズ の空港の天気 - METARとTAF

セント・ジョンズ国際空港 ( CYYT / YYT ) - カナダ ニューファンドランド・ラブラドール州セントジョンズ
飛行場実況気象(Metar)
観測時間07/29 00:30 NDT (07/29 03:00 UTC)
風向・風速南西 4m/s
視程10km以上
天気現象
全天を覆う雲 雲底高度 150m
気温19℃
湿度100%
気圧1011.7hPa
METARCYYT 290300Z 23007KT 15SM OVC005 19/19 A2987 RMK SF8 SLP117 DENSITY ALT 1100FT
過去の天気等 Google飛行場航空写真 Wunderground天気予報

過去48時間のMETAR

飛行場予報(TAF)
発表時間: 7/29 00:58 NDT (7/29 03:28 UTC)
予報対象時間: 29日0時 NDT ~ 29日21時 NDT
風向・風速西南西 6m/s
視程10km以上
全天の8割程度の雲 雲底高度 180m
全天の8割程度の雲 雲底高度 370m
全天を覆う雲 雲底高度 7320m
29日0時 NDT ~ 29日2時 NDT に一時的に
全天の4割程度の雲 雲底高度 180m
全天を覆う雲 雲底高度 370m
29日0時 NDT から 確率 30% で
視程3220m
天気現象雷雨 もや
全天の8割程度の雲 雲底高度 180m
全天の8割程度の積乱雲 雲底高度 370m
29日2時 NDT から
風向・風速西南西 6m/s
視程10km以上
全天の8割程度の雲 雲底高度 180m
全天の8割程度の雲 雲底高度 370m
29日2時 NDT ~ 29日9時 NDT に一時的に
全天の4割程度の雲 雲底高度 180m
全天の8割程度の雲 雲底高度 370m
29日3時 NDT から 確率 30% で
視程4830m
天気現象弱い霧雨 もや
全天を覆う雲 雲底高度 90m
29日9時 NDT から
風向・風速西 6m/s
視程10km以上
全天の8割程度の雲 雲底高度 180m
29日9時 NDT ~ 29日11時 NDT に一時的に
全天の4割程度の雲 雲底高度 180m
全天の8割程度の雲 雲底高度 760m
29日11時 NDT から
風向・風速西 6m/s
視程10km以上
全天の8割程度の雲 雲底高度 760m
29日14時 NDT から
風向・風速西 6m/s
視程10km以上
全天の4割程度の雲 雲底高度 910m
TAF AMD CYYT 290328Z 2903/2924 24012KT P6SM BKN006 BKN012 OVC240
TEMPO 2903/2905 SCT006 OVC012
PROB30 2903/2905 2SM TSRA BR BKN006 BKN012CB
FM290500 24012KT P6SM BKN006 BKN012
TEMPO 2905/2912 SCT006 BKN012
PROB30 2906/2912 3SM -DZ BR OVC003
FM291200 26012KT P6SM BKN006
TEMPO 2912/2914 SCT006 BKN025
FM291400 26012KT P6SM BKN025
FM291700 26012KT P6SM SCT030 RMK NXT FCST BY 290600Z